createdAt,value
2023-04-06T00:01:55.433Z,5.39
2023-04-06T00:04:22.260Z,5.36
2023-04-06T00:06:48.909Z,5.30
2023-04-06T00:09:15.781Z,5.26
2023-04-06T00:11:42.301Z,5.22
2023-04-06T00:14:08.894Z,5.19
2023-04-06T00:16:35.862Z,5.15
2023-04-06T00:19:02.448Z,5.12
2023-04-06T00:21:28.987Z,5.08
2023-04-06T00:23:55.654Z,5.04
2023-04-06T00:26:22.220Z,5.01
2023-04-06T00:28:48.736Z,4.99
2023-04-06T00:31:15.676Z,4.97
2023-04-06T00:33:42.161Z,4.94
2023-04-06T00:36:08.729Z,4.92
2023-04-06T00:38:35.231Z,4.90
2023-04-06T00:41:01.939Z,4.88
2023-04-06T00:43:28.527Z,4.86
2023-04-06T00:45:55.162Z,4.83
2023-04-06T00:48:21.792Z,4.80
2023-04-06T00:50:48.391Z,4.79
2023-04-06T00:53:14.891Z,4.77
2023-04-06T00:55:41.524Z,4.75
2023-04-06T00:58:08.576Z,4.73
2023-04-06T01:00:35.108Z,4.71
2023-04-06T01:03:02.300Z,4.70
2023-04-06T01:05:28.886Z,4.68
2023-04-06T01:07:55.467Z,4.67
2023-04-06T01:10:29.348Z,4.67
2023-04-06T01:12:55.939Z,4.65
2023-04-06T01:15:22.822Z,4.64
2023-04-06T01:17:49.353Z,4.64
2023-04-06T01:20:16.245Z,4.63
2023-04-06T01:22:42.746Z,4.63
2023-04-06T01:25:09.728Z,4.62
2023-04-06T01:27:36.364Z,4.62
2023-04-06T01:30:03.078Z,4.62
2023-04-06T01:32:29.607Z,4.61
2023-04-06T01:34:56.114Z,4.61
2023-04-06T01:37:22.676Z,4.61
2023-04-06T01:39:49.180Z,4.60
2023-04-06T01:42:15.712Z,4.60
2023-04-06T01:44:42.226Z,4.59
2023-04-06T01:47:08.733Z,4.58
2023-04-06T01:49:35.282Z,4.56
2023-04-06T01:52:01.811Z,4.54
2023-04-06T01:54:28.306Z,4.53
2023-04-06T01:56:54.826Z,4.50
2023-04-06T01:59:21.567Z,4.48
2023-04-06T02:01:48.168Z,4.48
2023-04-06T02:04:15.797Z,4.46
2023-04-06T02:06:42.317Z,4.44
2023-04-06T02:09:09.101Z,4.43
2023-04-06T02:11:36.599Z,4.41
2023-04-06T02:14:03.195Z,4.39
2023-04-06T02:16:29.773Z,4.37
2023-04-06T02:18:56.270Z,4.35
2023-04-06T02:21:22.810Z,4.34
2023-04-06T02:23:50.538Z,4.31
2023-04-06T02:26:17.152Z,4.29
2023-04-06T02:28:43.766Z,4.28
2023-04-06T02:31:10.517Z,4.26
2023-04-06T02:33:37.104Z,4.24
2023-04-06T02:36:03.871Z,4.21
2023-04-06T02:38:30.464Z,4.18
2023-04-06T02:40:56.964Z,4.16
2023-04-06T02:43:23.500Z,4.16
2023-04-06T02:45:50.065Z,4.13
2023-04-06T02:48:16.691Z,4.12
2023-04-06T02:50:43.268Z,4.10
2023-04-06T02:53:09.843Z,4.07
2023-04-06T02:55:36.391Z,4.08
2023-04-06T02:58:02.959Z,4.05
2023-04-06T03:00:29.551Z,4.06
2023-04-06T03:02:56.825Z,4.05
2023-04-06T03:05:23.445Z,4.03
2023-04-06T03:07:49.916Z,4.03
2023-04-06T03:10:16.701Z,4.04
2023-04-06T03:12:43.267Z,4.01
2023-04-06T03:15:10.123Z,4.01
2023-04-06T03:17:36.708Z,4.01
2023-04-06T03:20:03.574Z,4.00
2023-04-06T03:22:30.316Z,4.00
2023-04-06T03:24:56.896Z,3.99
2023-04-06T03:27:23.405Z,3.98
2023-04-06T03:29:49.935Z,3.96
2023-04-06T03:32:16.651Z,3.95
2023-04-06T03:34:43.156Z,3.94
2023-04-06T03:37:10.711Z,3.92
2023-04-06T03:39:37.658Z,3.90
2023-04-06T03:42:04.277Z,3.88
2023-04-06T03:44:30.929Z,3.87
2023-04-06T03:46:57.531Z,3.85
2023-04-06T03:49:24.093Z,3.85
2023-04-06T03:51:50.605Z,3.83
2023-04-06T03:54:17.181Z,3.82
2023-04-06T03:56:43.742Z,3.80
2023-04-06T03:59:10.638Z,3.79
2023-04-06T04:01:37.460Z,3.79
2023-04-06T04:04:04.410Z,3.78
2023-04-06T04:06:31.244Z,3.77
2023-04-06T04:08:57.717Z,3.76
2023-04-06T04:11:24.265Z,3.74
2023-04-06T04:13:50.760Z,3.73
2023-04-06T04:16:17.311Z,3.72
2023-04-06T04:18:44.848Z,3.72
2023-04-06T04:21:11.408Z,3.69
2023-04-06T04:23:37.919Z,3.70
2023-04-06T04:26:04.539Z,3.68
2023-04-06T04:28:31.103Z,3.66
2023-04-06T04:30:57.572Z,3.65
2023-04-06T04:33:24.096Z,3.65
2023-04-06T04:35:50.706Z,3.63
2023-04-06T04:38:17.245Z,3.63
2023-04-06T04:40:43.764Z,3.61
2023-04-06T04:43:10.461Z,3.61
2023-04-06T04:45:37.017Z,3.60
2023-04-06T04:48:03.652Z,3.60
2023-04-06T04:50:30.494Z,3.58
2023-04-06T04:52:56.991Z,3.59
2023-04-06T04:55:23.525Z,3.57
2023-04-06T04:57:50.024Z,3.56
2023-04-06T05:00:16.716Z,3.55
2023-04-06T05:02:43.256Z,3.55
2023-04-06T05:05:10.088Z,3.55
2023-04-06T05:07:36.840Z,3.54
2023-04-06T05:10:03.423Z,3.54
2023-04-06T05:12:29.978Z,3.53
2023-04-06T05:14:56.502Z,3.52
2023-04-06T05:17:23.023Z,3.52
2023-04-06T05:19:49.723Z,3.52
2023-04-06T05:22:18.669Z,3.52
2023-04-06T05:24:45.232Z,3.52
2023-04-06T05:27:11.776Z,3.52
2023-04-06T05:29:38.336Z,3.53
2023-04-06T05:32:05.080Z,3.53
2023-04-06T05:34:31.829Z,3.53
2023-04-06T05:36:58.337Z,3.53
2023-04-06T05:39:24.897Z,3.56
2023-04-06T05:41:51.460Z,3.57
2023-04-06T05:44:18.022Z,3.57
2023-04-06T05:46:44.628Z,3.59
2023-04-06T05:49:11.442Z,3.62
2023-04-06T05:51:38.324Z,3.64
2023-04-06T05:54:04.861Z,3.68
2023-04-06T05:56:32.955Z,3.72
2023-04-06T05:58:59.529Z,3.76
2023-04-06T06:01:26.386Z,3.81
2023-04-06T06:03:52.917Z,3.84
2023-04-06T06:06:19.421Z,3.90
2023-04-06T06:08:47.189Z,3.95
2023-04-06T06:11:13.765Z,4.00
2023-04-06T06:13:40.562Z,4.05
2023-04-06T06:16:07.210Z,4.11
2023-04-06T06:18:33.873Z,4.17
2023-04-06T06:21:00.382Z,4.23
2023-04-06T06:23:27.514Z,4.29
2023-04-06T06:25:54.248Z,4.37
2023-04-06T06:28:20.852Z,4.45
2023-04-06T06:30:47.381Z,4.53
2023-04-06T06:33:13.869Z,4.59
2023-04-06T06:35:40.458Z,4.69
2023-04-06T06:38:06.957Z,4.78
2023-04-06T06:40:34.214Z,4.88
2023-04-06T06:43:00.927Z,4.98
2023-04-06T06:45:27.534Z,5.08
2023-04-06T06:47:55.670Z,5.20
2023-04-06T06:50:22.607Z,5.40
2023-04-06T06:52:49.145Z,5.65
2023-04-06T06:55:16.513Z,5.95
2023-04-06T06:57:43.639Z,6.28
2023-04-06T07:00:12.891Z,6.64
2023-04-06T07:02:40.951Z,6.97
2023-04-06T07:05:24.287Z,7.32
2023-04-06T07:07:54.866Z,7.70
2023-04-06T07:10:21.687Z,8.02
2023-04-06T07:12:48.323Z,8.31
2023-04-06T07:15:14.935Z,8.56
2023-04-06T07:17:46.545Z,8.79
2023-04-06T07:20:13.569Z,8.98
2023-04-06T07:22:40.464Z,9.12
2023-04-06T07:25:07.254Z,9.27
2023-04-06T07:27:33.822Z,9.37
2023-04-06T07:30:00.553Z,9.48
2023-04-06T07:32:27.265Z,9.56
2023-04-06T07:34:53.871Z,9.67
2023-04-06T07:37:20.713Z,9.75
2023-04-06T07:39:47.660Z,9.85
2023-04-06T07:42:14.177Z,9.93
2023-04-06T07:44:40.737Z,10.01
2023-04-06T07:47:07.296Z,10.10
2023-04-06T07:49:34.103Z,10.15
2023-04-06T07:52:00.768Z,10.24
2023-04-06T07:54:27.439Z,10.29
2023-04-06T07:56:54.002Z,10.38
2023-04-06T07:59:20.571Z,10.44
2023-04-06T08:01:47.129Z,10.52
2023-04-06T08:04:13.890Z,10.58
2023-04-06T08:06:42.209Z,10.68
2023-04-06T08:09:08.772Z,10.77
2023-04-06T08:11:35.522Z,10.83
2023-04-06T08:14:02.320Z,10.90
2023-04-06T08:16:28.821Z,11.00
2023-04-06T08:18:55.370Z,11.06
2023-04-06T08:21:21.984Z,11.15
2023-04-06T08:23:48.540Z,11.20
2023-04-06T08:26:15.171Z,11.30
2023-04-06T08:28:41.876Z,11.37
2023-04-06T08:31:08.598Z,11.44
2023-04-06T08:33:40.347Z,11.53
2023-04-06T08:36:10.984Z,11.61
2023-04-06T08:38:37.580Z,11.73
2023-04-06T08:41:13.969Z,11.83
2023-04-06T08:43:59.853Z,11.88
2023-04-06T08:46:32.513Z,12.00
2023-04-06T08:48:59.979Z,12.08
2023-04-06T08:51:27.697Z,12.18
2023-04-06T08:53:57.666Z,12.26
2023-04-06T08:56:24.982Z,12.35
2023-04-06T08:58:52.919Z,12.43
2023-04-06T09:01:26.802Z,12.53
2023-04-06T09:03:56.949Z,12.63
2023-04-06T09:06:23.689Z,12.72
2023-04-06T09:08:50.362Z,12.81
2023-04-06T09:11:16.997Z,12.89
2023-04-06T09:13:47.505Z,13.01
2023-04-06T09:16:14.396Z,13.13
2023-04-06T09:18:41.199Z,13.24
2023-04-06T09:21:08.219Z,13.33
2023-04-06T09:23:35.048Z,13.45
2023-04-06T09:26:08.977Z,13.56
2023-04-06T09:28:42.470Z,13.65
2023-04-06T09:31:11.045Z,13.77
2023-04-06T09:33:45.349Z,13.89
2023-04-06T09:36:12.543Z,13.99
2023-04-06T09:38:39.786Z,14.07
2023-04-06T09:41:06.767Z,14.19
2023-04-06T09:43:33.346Z,14.30
2023-04-06T09:46:01.543Z,14.40
2023-04-06T09:48:30.135Z,14.53
2023-04-06T09:51:00.533Z,14.65
2023-04-06T09:53:28.363Z,14.80
2023-04-06T09:55:58.638Z,14.93
2023-04-06T09:58:27.604Z,15.06
2023-04-06T10:01:07.182Z,15.21
2023-04-06T10:03:40.081Z,15.33
2023-04-06T10:06:12.104Z,15.45
2023-04-06T10:08:43.950Z,15.59
2023-04-06T10:11:11.773Z,15.71
2023-04-06T10:13:38.559Z,15.80
2023-04-06T10:16:05.430Z,15.91
2023-04-06T10:18:32.049Z,16.03
2023-04-06T20:31:17.583Z,13.16
2023-04-06T20:33:44.133Z,13.09
2023-04-06T20:36:11.826Z,13.05
2023-04-06T20:38:38.410Z,12.99
2023-04-06T20:41:07.726Z,12.93
2023-04-06T20:43:35.740Z,12.86
2023-04-06T20:46:02.783Z,12.81
2023-04-06T20:48:33.480Z,12.76
2023-04-06T20:51:01.408Z,12.69
2023-04-06T20:53:27.989Z,12.63
2023-04-06T20:55:54.857Z,12.56
2023-04-06T20:58:21.522Z,12.48
2023-04-06T21:00:50.667Z,12.42
2023-04-06T21:03:18.145Z,12.36
2023-04-06T21:05:51.941Z,12.29
2023-04-06T21:08:18.690Z,12.24
2023-04-06T21:10:45.436Z,12.18
2023-04-06T21:13:12.110Z,12.11
2023-04-06T21:15:38.677Z,12.07
2023-04-06T21:18:05.666Z,12.01
2023-04-06T21:20:32.316Z,11.97
2023-04-06T21:22:58.829Z,11.91
2023-04-06T21:25:25.405Z,11.85
2023-04-06T21:27:52.373Z,11.80
2023-04-06T21:30:18.991Z,11.74
2023-04-06T21:32:45.492Z,11.70
2023-04-06T21:35:12.023Z,11.65
2023-04-06T21:37:38.503Z,11.60
2023-04-06T21:40:05.889Z,11.54
2023-04-06T21:42:32.484Z,11.48
2023-04-06T21:44:59.785Z,11.45
2023-04-06T21:47:26.664Z,11.38
2023-04-06T21:49:53.201Z,11.34
2023-04-06T21:52:19.689Z,11.30
2023-04-06T21:54:46.160Z,11.24
2023-04-06T21:57:13.680Z,11.21
2023-04-06T21:59:40.653Z,11.17
2023-04-06T22:02:07.241Z,11.13
2023-04-06T22:04:34.000Z,11.10
2023-04-06T22:07:00.790Z,11.06
2023-04-06T22:09:27.263Z,11.01
2023-04-06T22:11:53.797Z,10.97
2023-04-06T22:14:20.638Z,10.91
2023-04-06T22:16:47.414Z,10.87
2023-04-06T22:19:14.021Z,10.83
2023-04-06T22:21:40.648Z,10.78
2023-04-06T22:24:07.177Z,10.76
2023-04-06T22:26:33.640Z,10.72
2023-04-06T22:29:00.098Z,10.69
2023-04-06T22:31:27.349Z,10.65
2023-04-06T22:33:53.843Z,10.60
2023-04-06T22:36:20.668Z,10.55
2023-04-06T22:38:49.418Z,10.54
2023-04-06T22:41:15.944Z,10.49
2023-04-06T22:43:42.538Z,10.45
2023-04-06T22:46:08.991Z,10.41
2023-04-06T22:48:35.461Z,10.36
2023-04-06T22:51:01.958Z,10.33
2023-04-06T22:53:28.488Z,10.30
2023-04-06T22:55:55.010Z,10.24
2023-04-06T22:58:21.476Z,10.20
2023-04-06T23:00:47.937Z,10.16
2023-04-06T23:03:14.631Z,10.12
2023-04-06T23:05:41.305Z,10.07
2023-04-06T23:08:07.800Z,10.02
2023-04-06T23:10:34.311Z,9.97
2023-04-06T23:13:00.939Z,9.93
2023-04-06T23:15:27.463Z,9.87
2023-04-06T23:17:53.968Z,9.84
2023-04-06T23:20:20.709Z,9.79
2023-04-06T23:22:47.190Z,9.75
2023-04-06T23:25:13.672Z,9.71
2023-04-06T23:27:40.122Z,9.68
2023-04-06T23:30:06.981Z,9.64
2023-04-06T23:32:33.576Z,9.62
2023-04-06T23:35:00.205Z,9.58
2023-04-06T23:37:27.390Z,9.57
2023-04-06T23:39:53.888Z,9.54
2023-04-06T23:42:20.511Z,9.50
2023-04-06T23:44:47.508Z,9.47
2023-04-06T23:47:14.047Z,9.45
2023-04-06T23:49:40.563Z,9.41
2023-04-06T23:52:07.260Z,9.37
2023-04-06T23:54:33.712Z,9.34
2023-04-06T23:57:00.193Z,9.31
2023-04-06T23:59:26.799Z,9.28
